sensor_id;sensor_type;location;lat;lon;timestamp;P1;P2;P0
62599;PMS7003;48671;48.922;2.346;2023-03-01T00:01:11;156.50;154.00;150.50
62599;PMS7003;48671;48.922;2.346;2023-03-01T00:03:40;166.25;163.75;158.75
62599;PMS7003;48671;48.922;2.346;2023-03-01T00:06:06;172.00;163.25;158.25
62599;PMS7003;48671;48.922;2.346;2023-03-01T00:08:32;177.33;174.33;169.67
62599;PMS7003;48671;48.922;2.346;2023-03-01T00:11:08;182.20;179.40;170.80
62599;PMS7003;48671;48.922;2.346;2023-03-01T00:13:37;166.00;162.75;157.00
62599;PMS7003;48671;48.922;2.346;2023-03-01T00:16:06;172.00;167.00;162.60
62599;PMS7003;48671;48.922;2.346;2023-03-01T00:18:33;165.00;163.60;157.20
62599;PMS7003;48671;48.922;2.346;2023-03-01T00:20:59;169.75;166.00;161.00
62599;PMS7003;48671;48.922;2.346;2023-03-01T00:23:25;156.33;156.33;151.67
62599;PMS7003;48671;48.922;2.346;2023-03-01T00:25:51;169.00;167.33;161.33
62599;PMS7003;48671;48.922;2.346;2023-03-01T00:28:16;170.25;169.25;164.50
62599;PMS7003;48671;48.922;2.346;2023-03-01T00:30:42;164.33;164.33;160.33
62599;PMS7003;48671;48.922;2.346;2023-03-01T00:33:08;165.33;163.00;161.33
62599;PMS7003;48671;48.922;2.346;2023-03-01T00:35:33;168.67;165.67;158.67
62599;PMS7003;48671;48.922;2.346;2023-03-01T00:37:59;172.00;171.33;166.00
62599;PMS7003;48671;48.922;2.346;2023-03-01T00:40:25;167.67;164.67;161.33
62599;PMS7003;48671;48.922;2.346;2023-03-01T00:42:52;161.25;160.25;154.00
62599;PMS7003;48671;48.922;2.346;2023-03-01T00:45:17;170.00;167.50;164.50
62599;PMS7003;48671;48.922;2.346;2023-03-01T00:47:42;172.00;169.67;166.33
62599;PMS7003;48671;48.922;2.346;2023-03-01T00:50:08;167.00;165.00;160.50
62599;PMS7003;48671;48.922;2.346;2023-03-01T00:52:34;169.33;165.00;161.33
62599;PMS7003;48671;48.922;2.346;2023-03-01T00:54:59;175.67;173.00;171.33
62599;PMS7003;48671;48.922;2.346;2023-03-01T00:57:25;159.67;156.00;150.00
62599;PMS7003;48671;48.922;2.346;2023-03-01T00:59:50;173.50;165.50;161.25
62599;PMS7003;48671;48.922;2.346;2023-03-01T01:02:17;173.20;168.60;164.00
62599;PMS7003;48671;48.922;2.346;2023-03-01T01:04:43;172.75;162.50;157.50
62599;PMS7003;48671;48.922;2.346;2023-03-01T01:07:08;168.25;162.25;158.25
62599;PMS7003;48671;48.922;2.346;2023-03-01T01:09:34;177.00;160.00;155.00
62599;PMS7003;48671;48.922;2.346;2023-03-01T01:11:59;179.75;172.25;167.75
62599;PMS7003;48671;48.922;2.346;2023-03-01T01:14:24;188.33;171.67;167.00
62599;PMS7003;48671;48.922;2.346;2023-03-01T01:16:50;174.50;164.50;160.00
62599;PMS7003;48671;48.922;2.346;2023-03-01T01:19:16;177.00;160.75;155.50
62599;PMS7003;48671;48.922;2.346;2023-03-01T01:21:41;186.75;170.50;166.00
62599;PMS7003;48671;48.922;2.346;2023-03-01T01:24:10;177.40;163.60;158.80
62599;PMS7003;48671;48.922;2.346;2023-03-01T01:26:36;181.80;168.00;163.40
62599;PMS7003;48671;48.922;2.346;2023-03-01T01:29:02;181.67;164.67;160.67
62599;PMS7003;48671;48.922;2.346;2023-03-01T01:31:29;180.00;163.00;160.00
62599;PMS7003;48671;48.922;2.346;2023-03-01T01:33:55;177.80;164.20;160.20
62599;PMS7003;48671;48.922;2.346;2023-03-01T01:36:22;185.50;164.00;160.50
62599;PMS7003;48671;48.922;2.346;2023-03-01T01:38:48;184.75;168.75;163.00
62599;PMS7003;48671;48.922;2.346;2023-03-01T01:41:13;179.00;163.33;158.67
62599;PMS7003;48671;48.922;2.346;2023-03-01T01:43:44;181.25;168.25;162.25
62599;PMS7003;48671;48.922;2.346;2023-03-01T01:46:30;184.20;169.00;163.40
62599;PMS7003;48671;48.922;2.346;2023-03-01T01:48:58;187.60;169.40;166.60
62599;PMS7003;48671;48.922;2.346;2023-03-01T01:51:28;184.40;164.40;159.60
62599;PMS7003;48671;48.922;2.346;2023-03-01T01:54:03;182.50;164.50;158.75
62599;PMS7003;48671;48.922;2.346;2023-03-01T01:56:35;189.75;171.00;166.00
62599;PMS7003;48671;48.922;2.346;2023-03-01T01:59:05;187.33;169.67;163.00
62599;PMS7003;48671;48.922;2.346;2023-03-01T02:01:30;190.25;173.25;167.25
62599;PMS7003;48671;48.922;2.346;2023-03-01T02:03:56;179.67;160.00;154.00
62599;PMS7003;48671;48.922;2.346;2023-03-01T02:06:24;187.00;166.00;160.67
62599;PMS7003;48671;48.922;2.346;2023-03-01T02:08:53;178.50;161.75;156.00
62599;PMS7003;48671;48.922;2.346;2023-03-01T02:11:23;181.25;158.00;154.50
62599;PMS7003;48671;48.922;2.346;2023-03-01T02:13:51;189.00;169.00;166.00
62599;PMS7003;48671;48.922;2.346;2023-03-01T02:16:19;185.00;164.60;161.40
62599;PMS7003;48671;48.922;2.346;2023-03-01T02:18:44;187.50;171.00;166.50
62599;PMS7003;48671;48.922;2.346;2023-03-01T02:21:30;183.60;172.80;168.40
62599;PMS7003;48671;48.922;2.346;2023-03-01T02:26:55;193.75;181.50;166.50
62599;PMS7003;48671;48.922;2.346;2023-03-01T02:29:22;133.25;114.50;109.25
62599;PMS7003;48671;48.922;2.346;2023-03-01T02:31:49;183.60;167.20;163.20
62599;PMS7003;48671;48.922;2.346;2023-03-01T02:34:21;187.20;167.00;162.00
62599;PMS7003;48671;48.922;2.346;2023-03-01T02:37:09;177.50;164.25;160.75
62599;PMS7003;48671;48.922;2.346;2023-03-01T02:39:44;189.00;176.25;171.00
62599;PMS7003;48671;48.922;2.346;2023-03-01T02:42:15;189.50;174.25;170.75
62599;PMS7003;48671;48.922;2.346;2023-03-01T02:44:48;186.25;171.25;165.50
62599;PMS7003;48671;48.922;2.346;2023-03-01T02:47:14;184.60;165.80;157.40
62599;PMS7003;48671;48.922;2.346;2023-03-01T02:49:39;189.50;172.00;167.25
62599;PMS7003;48671;48.922;2.346;2023-03-01T02:55:02;188.75;171.75;163.25
62599;PMS7003;48671;48.922;2.346;2023-03-01T02:57:36;195.00;174.75;165.50
62599;PMS7003;48671;48.922;2.346;2023-03-01T03:00:05;140.25;124.50;115.25
62599;PMS7003;48671;48.922;2.346;2023-03-01T03:02:34;154.50;139.25;131.25
62599;PMS7003;48671;48.922;2.346;2023-03-01T03:05:11;191.25;176.50;167.00
62599;PMS7003;48671;48.922;2.346;2023-03-01T03:07:43;198.75;172.50;164.00
62599;PMS7003;48671;48.922;2.346;2023-03-01T03:10:12;178.25;153.50;145.25
62599;PMS7003;48671;48.922;2.346;2023-03-01T03:12:44;188.75;171.00;163.50
62599;PMS7003;48671;48.922;2.346;2023-03-01T03:15:15;190.00;173.75;167.25
62599;PMS7003;48671;48.922;2.346;2023-03-01T03:17:41;184.75;167.25;164.00
62599;PMS7003;48671;48.922;2.346;2023-03-01T03:20:08;174.50;159.75;156.00
62599;PMS7003;48671;48.922;2.346;2023-03-01T03:22:37;170.25;153.50;152.00
62599;PMS7003;48671;48.922;2.346;2023-03-01T03:25:04;182.25;169.75;163.75
62599;PMS7003;48671;48.922;2.346;2023-03-01T03:27:30;179.50;164.75;160.25
62599;PMS7003;48671;48.922;2.346;2023-03-01T03:29:56;180.00;168.67;164.67
62599;PMS7003;48671;48.922;2.346;2023-03-01T03:32:22;172.67;159.00;153.00
62599;PMS7003;48671;48.922;2.346;2023-03-01T03:34:47;146.75;134.25;129.25
62599;PMS7003;48671;48.922;2.346;2023-03-01T03:37:13;173.75;156.75;151.50
62599;PMS7003;48671;48.922;2.346;2023-03-01T03:39:58;126.00;111.25;105.50
62599;PMS7003;48671;48.922;2.346;2023-03-01T03:42:24;133.00;112.50;110.00
62599;PMS7003;48671;48.922;2.346;2023-03-01T03:44:49;122.25;109.75;106.00
62599;PMS7003;48671;48.922;2.346;2023-03-01T03:47:14;114.50;95.25;91.50
62599;PMS7003;48671;48.922;2.346;2023-03-01T03:49:39;113.67;89.00;86.00
62599;PMS7003;48671;48.922;2.346;2023-03-01T03:52:05;129.00;120.00;115.00
62599;PMS7003;48671;48.922;2.346;2023-03-01T03:54:38;156.00;146.00;142.33
62599;PMS7003;48671;48.922;2.346;2023-03-01T03:57:04;127.50;114.75;110.75
62599;PMS7003;48671;48.922;2.346;2023-03-01T03:59:29;151.00;141.00;135.00
62599;PMS7003;48671;48.922;2.346;2023-03-01T04:01:55;163.67;149.67;145.33
62599;PMS7003;48671;48.922;2.346;2023-03-01T04:04:20;169.75;163.50;160.00
62599;PMS7003;48671;48.922;2.346;2023-03-01T04:06:45;153.00;141.25;136.75
62599;PMS7003;48671;48.922;2.346;2023-03-01T04:09:13;159.00;146.50;143.25
62599;PMS7003;48671;48.922;2.346;2023-03-01T04:11:38;167.00;159.33;154.67
62599;PMS7003;48671;48.922;2.346;2023-03-01T04:14:03;157.25;144.00;140.25
62599;PMS7003;48671;48.922;2.346;2023-03-01T04:16:29;173.33;164.67;161.00
62599;PMS7003;48671;48.922;2.346;2023-03-01T04:18:55;170.75;161.75;157.50
62599;PMS7003;48671;48.922;2.346;2023-03-01T04:21:20;203.00;195.67;190.67
62599;PMS7003;48671;48.922;2.346;2023-03-01T04:23:46;171.67;160.67;154.00
62599;PMS7003;48671;48.922;2.346;2023-03-01T04:26:11;188.00;179.33;176.67
62599;PMS7003;48671;48.922;2.346;2023-03-01T04:28:38;177.25;168.75;163.75
62599;PMS7003;48671;48.922;2.346;2023-03-01T04:31:09;163.40;149.00;145.40
62599;PMS7003;48671;48.922;2.346;2023-03-01T04:36:11;200.50;189.50;184.50
62599;PMS7003;48671;48.922;2.346;2023-03-01T04:38:39;172.00;165.25;161.50
62599;PMS7003;48671;48.922;2.346;2023-03-01T04:41:05;175.75;168.50;164.25
62599;PMS7003;48671;48.922;2.346;2023-03-01T04:43:35;169.25;160.75;154.75
62599;PMS7003;48671;48.922;2.346;2023-03-01T04:46:04;172.50;163.50;159.00
62599;PMS7003;48671;48.922;2.346;2023-03-01T04:48:33;171.00;162.00;159.00
62599;PMS7003;48671;48.922;2.346;2023-03-01T04:50:59;162.75;153.50;150.25
62599;PMS7003;48671;48.922;2.346;2023-03-01T04:53:25;154.40;146.80;143.60
62599;PMS7003;48671;48.922;2.346;2023-03-01T04:55:51;172.50;162.00;159.00
62599;PMS7003;48671;48.922;2.346;2023-03-01T04:58:16;172.67;164.67;159.67
62599;PMS7003;48671;48.922;2.346;2023-03-01T05:00:42;164.25;153.25;149.50
62599;PMS7003;48671;48.922;2.346;2023-03-01T05:03:08;185.33;170.00;164.67
62599;PMS7003;48671;48.922;2.346;2023-03-01T05:05:37;164.60;157.20;152.80
62599;PMS7003;48671;48.922;2.346;2023-03-01T05:08:04;163.40;151.40;149.60
62599;PMS7003;48671;48.922;2.346;2023-03-01T05:10:31;181.60;172.60;167.20
62599;PMS7003;48671;48.922;2.346;2023-03-01T05:12:59;167.40;155.80;151.40
62599;PMS7003;48671;48.922;2.346;2023-03-01T05:15:26;177.50;168.75;162.25
62599;PMS7003;48671;48.922;2.346;2023-03-01T05:17:53;173.80;163.00;157.80
62599;PMS7003;48671;48.922;2.346;2023-03-01T05:20:19;174.00;167.25;166.00
62599;PMS7003;48671;48.922;2.346;2023-03-01T05:22:47;185.00;173.60;169.60
62599;PMS7003;48671;48.922;2.346;2023-03-01T05:25:13;184.00;174.50;169.25
62599;PMS7003;48671;48.922;2.346;2023-03-01T05:27:39;167.25;155.00;149.50
62599;PMS7003;48671;48.922;2.346;2023-03-01T05:30:04;166.50;159.50;154.50
62599;PMS7003;48671;48.922;2.346;2023-03-01T05:32:38;177.25;166.75;160.25
62599;PMS7003;48671;48.922;2.346;2023-03-01T05:35:11;188.25;174.75;169.50
62599;PMS7003;48671;48.922;2.346;2023-03-01T05:37:38;179.50;171.75;167.25
62599;PMS7003;48671;48.922;2.346;2023-03-01T05:40:05;178.00;168.67;164.67
62599;PMS7003;48671;48.922;2.346;2023-03-01T05:42:30;170.50;163.00;158.00
62599;PMS7003;48671;48.922;2.346;2023-03-01T05:44:56;174.50;164.25;160.00
62599;PMS7003;48671;48.922;2.346;2023-03-01T05:47:21;169.50;160.25;155.75
62599;PMS7003;48671;48.922;2.346;2023-03-01T05:49:47;170.50;156.75;153.00
62599;PMS7003;48671;48.922;2.346;2023-03-01T05:52:12;161.33;150.67;144.67
62599;PMS7003;48671;48.922;2.346;2023-03-01T05:54:37;160.50;141.75;137.00
62599;PMS7003;48671;48.922;2.346;2023-03-01T05:57:03;164.25;144.25;139.25
62599;PMS7003;48671;48.922;2.346;2023-03-01T05:59:28;167.00;148.00;142.00
62599;PMS7003;48671;48.922;2.346;2023-03-01T06:01:54;159.25;140.75;135.25
62599;PMS7003;48671;48.922;2.346;2023-03-01T06:04:19;166.50;146.00;142.00
62599;PMS7003;48671;48.922;2.346;2023-03-01T06:06:44;148.67;132.67;123.67
62599;PMS7003;48671;48.922;2.346;2023-03-01T06:09:10;156.00;138.25;134.75
62599;PMS7003;48671;48.922;2.346;2023-03-01T06:11:36;120.67;103.33;96.67
62599;PMS7003;48671;48.922;2.346;2023-03-01T06:14:01;160.33;141.67;138.00
62599;PMS7003;48671;48.922;2.346;2023-03-01T06:16:27;155.25;132.75;125.25
62599;PMS7003;48671;48.922;2.346;2023-03-01T06:18:53;135.25;116.50;112.00
62599;PMS7003;48671;48.922;2.346;2023-03-01T06:21:18;130.00;112.00;107.67
62599;PMS7003;48671;48.922;2.346;2023-03-01T06:23:43;147.00;127.00;123.33
62599;PMS7003;48671;48.922;2.346;2023-03-01T06:26:08;110.75;83.50;78.50
62599;PMS7003;48671;48.922;2.346;2023-03-01T06:28:34;133.00;117.33;112.67
62599;PMS7003;48671;48.922;2.346;2023-03-01T06:31:00;115.75;89.75;82.75
62599;PMS7003;48671;48.922;2.346;2023-03-01T06:33:26;104.67;80.67;75.67
62599;PMS7003;48671;48.922;2.346;2023-03-01T06:35:53;108.25;82.75;75.00
62599;PMS7003;48671;48.922;2.346;2023-03-01T06:38:19;112.50;93.00;87.25
62599;PMS7003;48671;48.922;2.346;2023-03-01T06:40:45;113.00;90.00;84.25
62599;PMS7003;48671;48.922;2.346;2023-03-01T06:43:16;120.25;99.75;92.00
62599;PMS7003;48671;48.922;2.346;2023-03-01T06:45:42;103.50;75.50;64.50
62599;PMS7003;48671;48.922;2.346;2023-03-01T06:48:07;106.00;80.00;76.00
62599;PMS7003;48671;48.922;2.346;2023-03-01T06:50:33;102.25;76.00;66.25
62599;PMS7003;48671;48.922;2.346;2023-03-01T06:52:59;91.75;67.75;52.75
62599;PMS7003;48671;48.922;2.346;2023-03-01T06:55:25;92.00;65.50;49.50
62599;PMS7003;48671;48.922;2.346;2023-03-01T06:57:57;89.50;66.00;49.00
62599;PMS7003;48671;48.922;2.346;2023-03-01T07:00:24;89.50;62.00;47.75
62599;PMS7003;48671;48.922;2.346;2023-03-01T07:02:50;59.00;39.00;29.00
62599;PMS7003;48671;48.922;2.346;2023-03-01T07:05:15;52.75;45.00;33.00
62599;PMS7003;48671;48.922;2.346;2023-03-01T07:07:40;88.00;57.50;39.75
62599;PMS7003;48671;48.922;2.346;2023-03-01T07:10:06;54.50;34.00;23.00
62599;PMS7003;48671;48.922;2.346;2023-03-01T07:12:32;76.25;52.50;37.00
62599;PMS7003;48671;48.922;2.346;2023-03-01T07:14:57;84.75;61.50;46.00
62599;PMS7003;48671;48.922;2.346;2023-03-01T07:17:23;101.67;75.33;64.67
62599;PMS7003;48671;48.922;2.346;2023-03-01T07:19:48;79.67;58.00;44.33
62599;PMS7003;48671;48.922;2.346;2023-03-01T07:22:14;80.50;57.50;44.25
62599;PMS7003;48671;48.922;2.346;2023-03-01T07:24:40;96.33;69.00;52.00
62599;PMS7003;48671;48.922;2.346;2023-03-01T07:27:06;116.33;90.67;85.00
62599;PMS7003;48671;48.922;2.346;2023-03-01T07:29:31;110.50;84.25;74.25
62599;PMS7003;48671;48.922;2.346;2023-03-01T07:31:57;125.75;111.25;103.50
62599;PMS7003;48671;48.922;2.346;2023-03-01T07:34:23;134.25;115.50;106.25
62599;PMS7003;48671;48.922;2.346;2023-03-01T07:36:48;113.33;91.00;82.33
62599;PMS7003;48671;48.922;2.346;2023-03-01T07:39:14;123.50;101.00;89.50
62599;PMS7003;48671;48.922;2.346;2023-03-01T07:41:39;135.67;114.67;104.67
62599;PMS7003;48671;48.922;2.346;2023-03-01T07:44:04;135.75;129.50;115.50
62599;PMS7003;48671;48.922;2.346;2023-03-01T07:46:30;145.00;141.50;122.25
62599;PMS7003;48671;48.922;2.346;2023-03-01T07:48:55;140.00;131.75;108.25
62599;PMS7003;48671;48.922;2.346;2023-03-01T07:51:20;143.00;137.50;110.50
62599;PMS7003;48671;48.922;2.346;2023-03-01T07:53:46;181.50;176.25;133.50
62599;PMS7003;48671;48.922;2.346;2023-03-01T07:56:13;109.00;104.33;84.00
62599;PMS7003;48671;48.922;2.346;2023-03-01T07:58:42;31.50;31.50;24.50
62599;PMS7003;48671;48.922;2.346;2023-03-01T08:01:09;9.75;8.00;6.00
62599;PMS7003;48671;48.922;2.346;2023-03-01T08:03:37;5.25;5.25;4.00
62599;PMS7003;48671;48.922;2.346;2023-03-01T08:06:03;24.00;24.00;19.00
62599;PMS7003;48671;48.922;2.346;2023-03-01T08:08:30;32.75;32.75;26.75
62599;PMS7003;48671;48.922;2.346;2023-03-01T08:10:56;88.25;72.00;57.75
62599;PMS7003;48671;48.922;2.346;2023-03-01T08:13:23;108.00;101.00;84.00
62599;PMS7003;48671;48.922;2.346;2023-03-01T08:15:48;143.25;140.50;119.25
62599;PMS7003;48671;48.922;2.346;2023-03-01T08:18:15;149.50;146.00;130.00
62599;PMS7003;48671;48.922;2.346;2023-03-01T08:20:41;147.50;144.00;128.75
62599;PMS7003;48671;48.922;2.346;2023-03-01T08:23:07;152.25;146.25;127.25
62599;PMS7003;48671;48.922;2.346;2023-03-01T08:25:32;163.00;155.33;137.33
62599;PMS7003;48671;48.922;2.346;2023-03-01T08:27:57;174.00;170.00;152.00
62599;PMS7003;48671;48.922;2.346;2023-03-01T08:30:23;161.75;158.75;141.50
62599;PMS7003;48671;48.922;2.346;2023-03-01T08:32:49;128.25;121.25;109.50
62599;PMS7003;48671;48.922;2.346;2023-03-01T08:35:14;164.67;158.00;148.00
62599;PMS7003;48671;48.922;2.346;2023-03-01T08:37:40;163.50;160.75;149.25
62599;PMS7003;48671;48.922;2.346;2023-03-01T08:40:05;165.50;159.25;146.25
62599;PMS7003;48671;48.922;2.346;2023-03-01T08:42:32;163.67;159.00;150.00
62599;PMS7003;48671;48.922;2.346;2023-03-01T08:44:57;186.00;181.67;169.00
62599;PMS7003;48671;48.922;2.346;2023-03-01T08:47:23;177.75;173.50;162.00
62599;PMS7003;48671;48.922;2.346;2023-03-01T08:49:49;170.67;167.67;154.00
62599;PMS7003;48671;48.922;2.346;2023-03-01T08:52:15;169.67;163.67;156.00
62599;PMS7003;48671;48.922;2.346;2023-03-01T08:54:41;170.25;157.50;150.25
62599;PMS7003;48671;48.922;2.346;2023-03-01T08:57:06;171.75;160.50;153.00
62599;PMS7003;48671;48.922;2.346;2023-03-01T08:59:31;175.67;160.00;148.67
62599;PMS7003;48671;48.922;2.346;2023-03-01T09:02:02;156.75;147.50;138.75
62599;PMS7003;48671;48.922;2.346;2023-03-01T09:04:27;162.00;149.25;138.50
62599;PMS7003;48671;48.922;2.346;2023-03-01T09:06:52;159.25;146.75;138.00
62599;PMS7003;48671;48.922;2.346;2023-03-01T09:09:18;163.33;151.33;143.33
62599;PMS7003;48671;48.922;2.346;2023-03-01T09:11:43;148.75;146.00;137.25
62599;PMS7003;48671;48.922;2.346;2023-03-01T09:14:11;153.33;140.33;133.67
62599;PMS7003;48671;48.922;2.346;2023-03-01T09:16:39;160.67;153.00;143.67
62599;PMS7003;48671;48.922;2.346;2023-03-01T09:19:05;160.75;150.50;141.25
62599;PMS7003;48671;48.922;2.346;2023-03-01T09:21:30;172.75;157.75;150.50
62599;PMS7003;48671;48.922;2.346;2023-03-01T09:23:56;165.75;161.50;147.75
62599;PMS7003;48671;48.922;2.346;2023-03-01T09:26:22;150.67;148.00;138.33
62599;PMS7003;48671;48.922;2.346;2023-03-01T09:28:50;209.00;199.00;181.50
62599;PMS7003;48671;48.922;2.346;2023-03-01T09:31:18;184.25;174.50;160.50
62599;PMS7003;48671;48.922;2.346;2023-03-01T09:33:46;152.25;150.75;141.25
62599;PMS7003;48671;48.922;2.346;2023-03-01T09:36:17;155.67;148.67;140.33
62599;PMS7003;48671;48.922;2.346;2023-03-01T09:38:45;159.00;153.00;142.67
62599;PMS7003;48671;48.922;2.346;2023-03-01T09:43:52;274.50;267.50;212.50
62599;PMS7003;48671;48.922;2.346;2023-03-01T09:46:24;152.67;146.33;138.33
62599;PMS7003;48671;48.922;2.346;2023-03-01T09:48:52;159.00;154.00;145.00
62599;PMS7003;48671;48.922;2.346;2023-03-01T09:51:23;146.50;140.75;131.75
62599;PMS7003;48671;48.922;2.346;2023-03-01T09:53:52;159.67;150.00;140.00
62599;PMS7003;48671;48.922;2.346;2023-03-01T09:56:20;161.00;154.25;142.75
62599;PMS7003;48671;48.922;2.346;2023-03-01T09:59:10;154.00;146.00;132.75
62599;PMS7003;48671;48.922;2.346;2023-03-01T10:04:46;187.00;180.33;158.00
62599;PMS7003;48671;48.922;2.346;2023-03-01T10:10:10;129.50;122.75;115.50
62599;PMS7003;48671;48.922;2.346;2023-03-01T10:12:48;159.00;154.33;139.67
62599;PMS7003;48671;48.922;2.346;2023-03-01T10:15:15;156.00;153.33;138.67
62599;PMS7003;48671;48.922;2.346;2023-03-01T10:20:15;150.00;145.00;135.00
62599;PMS7003;48671;48.922;2.346;2023-03-01T10:22:44;172.67;165.67;145.00
62599;PMS7003;48671;48.922;2.346;2023-03-01T10:25:15;180.75;176.00;154.75
62599;PMS7003;48671;48.922;2.346;2023-03-01T10:27:51;157.33;151.00;136.00
62599;PMS7003;48671;48.922;2.346;2023-03-01T10:32:46;150.67;148.67;135.67
62599;PMS7003;48671;48.922;2.346;2023-03-01T10:35:23;153.67;148.00;138.67
62599;PMS7003;48671;48.922;2.346;2023-03-01T10:38:12;157.00;148.00;136.75
62599;PMS7003;48671;48.922;2.346;2023-03-01T10:40:58;176.75;168.75;146.00
62599;PMS7003;48671;48.922;2.346;2023-03-01T10:43:32;158.50;156.00;130.75
62599;PMS7003;48671;48.922;2.346;2023-03-01T10:46:28;169.25;162.00;147.75
62599;PMS7003;48671;48.922;2.346;2023-03-01T10:51:32;166.25;165.25;152.75
62599;PMS7003;48671;48.922;2.346;2023-03-01T10:53:57;199.50;193.75;166.25
62599;PMS7003;48671;48.922;2.346;2023-03-01T10:56:23;243.50;235.75;215.50
62599;PMS7003;48671;48.922;2.346;2023-03-01T11:01:29;288.75;285.50;269.25
62599;PMS7003;48671;48.922;2.346;2023-03-01T11:06:32;300.25;292.50;270.00
62599;PMS7003;48671;48.922;2.346;2023-03-01T11:11:41;210.40;206.80;182.20
62599;PMS7003;48671;48.922;2.346;2023-03-01T11:14:07;224.25;222.25;196.50
62599;PMS7003;48671;48.922;2.346;2023-03-01T11:16:41;194.50;192.25;171.75
62599;PMS7003;48671;48.922;2.346;2023-03-01T11:21:34;181.33;176.67;161.00
62599;PMS7003;48671;48.922;2.346;2023-03-01T11:24:04;173.80;167.80;152.20
62599;PMS7003;48671;48.922;2.346;2023-03-01T11:26:35;56.00;46.75;35.25
62599;PMS7003;48671;48.922;2.346;2023-03-01T11:29:06;188.00;183.75;161.00
62599;PMS7003;48671;48.922;2.346;2023-03-01T11:31:41;174.50;170.75;149.50
62599;PMS7003;48671;48.922;2.346;2023-03-01T11:34:11;174.50;170.50;155.50
62599;PMS7003;48671;48.922;2.346;2023-03-01T11:42:12;134.50;131.25;112.25
62599;PMS7003;48671;48.922;2.346;2023-03-01T11:44:42;169.50;167.00;149.25
62599;PMS7003;48671;48.922;2.346;2023-03-01T11:49:50;191.75;186.75;160.75
62599;PMS7003;48671;48.922;2.346;2023-03-01T12:01:15;158.25;156.75;138.75
62599;PMS7003;48671;48.922;2.346;2023-03-01T12:09:26;168.00;164.67;146.67
62599;PMS7003;48671;48.922;2.346;2023-03-01T12:17:45;163.33;161.67;136.00
62599;PMS7003;48671;48.922;2.346;2023-03-01T12:20:32;159.67;157.67;136.00
62599;PMS7003;48671;48.922;2.346;2023-03-01T12:34:21;46.00;41.75;32.75
62599;PMS7003;48671;48.922;2.346;2023-03-01T12:48:17;68.00;56.25;44.50
62599;PMS7003;48671;48.922;2.346;2023-03-01T12:50:53;59.75;51.00;37.75
62599;PMS7003;48671;48.922;2.346;2023-03-01T12:55:50;158.00;157.75;139.00
62599;PMS7003;48671;48.922;2.346;2023-03-01T12:58:22;85.75;74.25;63.00
62599;PMS7003;48671;48.922;2.346;2023-03-01T13:06:42;136.67;129.33;117.00
62599;PMS7003;48671;48.922;2.346;2023-03-01T13:09:19;166.00;165.25;149.25
62599;PMS7003;48671;48.922;2.346;2023-03-01T13:15:24;229.00;228.25;180.00
62599;PMS7003;48671;48.922;2.346;2023-03-01T13:17:50;180.67;172.67;152.67
62599;PMS7003;48671;48.922;2.346;2023-03-01T13:20:31;170.75;163.75;140.50
62599;PMS7003;48671;48.922;2.346;2023-03-01T13:23:01;171.50;168.50;140.50
62599;PMS7003;48671;48.922;2.346;2023-03-01T13:25:32;83.75;74.75;59.25
62599;PMS7003;48671;48.922;2.346;2023-03-01T13:28:35;92.00;82.67;65.00
62599;PMS7003;48671;48.922;2.346;2023-03-01T13:30:58;53.75;48.00;37.00
62599;PMS7003;48671;48.922;2.346;2023-03-01T13:35:53;47.00;41.50;33.25
62599;PMS7003;48671;48.922;2.346;2023-03-01T13:41:08;1.25;1.25;0.75
62599;PMS7003;48671;48.922;2.346;2023-03-01T13:43:34;11.50;11.50;8.75
62599;PMS7003;48671;48.922;2.346;2023-03-01T13:46:09;0.00;0.00;0.00
62599;PMS7003;48671;48.922;2.346;2023-03-01T13:48:39;21.75;21.75;17.25
62599;PMS7003;48671;48.922;2.346;2023-03-01T13:51:06;0.50;0.50;0.25
62599;PMS7003;48671;48.922;2.346;2023-03-01T13:53:45;1.25;1.25;1.00
62599;PMS7003;48671;48.922;2.346;2023-03-01T13:58:48;1.75;1.75;1.00
62599;PMS7003;48671;48.922;2.346;2023-03-01T14:01:30;0.25;0.25;0.25
62599;PMS7003;48671;48.922;2.346;2023-03-01T14:04:00;3.00;3.00;2.25
62599;PMS7003;48671;48.922;2.346;2023-03-01T14:06:43;10.50;10.50;8.25
62599;PMS7003;48671;48.922;2.346;2023-03-01T14:09:16;0.00;0.00;0.00
62599;PMS7003;48671;48.922;2.346;2023-03-01T14:19:37;0.00;0.00;0.00
62599;PMS7003;48671;48.922;2.346;2023-03-01T14:27:28;0.00;0.00;0.00
62599;PMS7003;48671;48.922;2.346;2023-03-01T14:30:00;0.00;0.00;0.00
62599;PMS7003;48671;48.922;2.346;2023-03-01T14:32:28;1.00;1.00;0.00
62599;PMS7003;48671;48.922;2.346;2023-03-01T14:34:56;0.00;0.00;0.00
62599;PMS7003;48671;48.922;2.346;2023-03-01T14:37:27;0.00;0.00;0.00
62599;PMS7003;48671;48.922;2.346;2023-03-01T14:39:54;0.00;0.00;0.00
62599;PMS7003;48671;48.922;2.346;2023-03-01T14:42:22;0.00;0.00;0.00
62599;PMS7003;48671;48.922;2.346;2023-03-01T14:44:50;0.00;0.00;0.00
62599;PMS7003;48671;48.922;2.346;2023-03-01T14:47:27;12.25;11.75;7.75
62599;PMS7003;48671;48.922;2.346;2023-03-01T14:49:57;0.00;0.00;0.00
62599;PMS7003;48671;48.922;2.346;2023-03-01T14:52:44;0.00;0.00;0.00
62599;PMS7003;48671;48.922;2.346;2023-03-01T14:55:16;0.00;0.00;0.00
62599;PMS7003;48671;48.922;2.346;2023-03-01T14:57:44;0.00;0.00;0.00
62599;PMS7003;48671;48.922;2.346;2023-03-01T15:00:23;0.00;0.00;0.00
62599;PMS7003;48671;48.922;2.346;2023-03-01T15:02:53;2.00;2.00;1.00
62599;PMS7003;48671;48.922;2.346;2023-03-01T15:05:23;1.00;1.00;0.00
62599;PMS7003;48671;48.922;2.346;2023-03-01T15:07:53;0.00;0.00;0.00
62599;PMS7003;48671;48.922;2.346;2023-03-01T15:10:23;0.00;0.00;0.00
62599;PMS7003;48671;48.922;2.346;2023-03-01T15:12:51;10.50;9.00;6.75
62599;PMS7003;48671;48.922;2.346;2023-03-01T15:15:31;0.00;0.00;0.00
62599;PMS7003;48671;48.922;2.346;2023-03-01T15:18:00;0.00;0.00;0.00
62599;PMS7003;48671;48.922;2.346;2023-03-01T15:20:28;0.00;0.00;0.00
62599;PMS7003;48671;48.922;2.346;2023-03-01T15:22:55;0.00;0.00;0.00
62599;PMS7003;48671;48.922;2.346;2023-03-01T15:25:26;0.00;0.00;0.00
62599;PMS7003;48671;48.922;2.346;2023-03-01T15:27:53;22.50;21.50;16.00
62599;PMS7003;48671;48.922;2.346;2023-03-01T15:30:21;0.00;0.00;0.00